createdAt,value
2018-09-18T00:01:57.509Z,13.88
2018-09-18T00:05:02.686Z,13.83
2018-09-18T00:08:07.651Z,13.81
2018-09-18T00:11:12.620Z,13.80
2018-09-18T00:14:17.602Z,13.79
2018-09-18T00:17:22.566Z,13.79
2018-09-18T00:20:27.554Z,13.82
2018-09-18T00:23:32.526Z,13.78
2018-09-18T00:26:37.517Z,13.73
2018-09-18T00:29:42.517Z,13.72
2018-09-18T00:32:47.501Z,13.73
2018-09-18T00:35:52.487Z,13.67
2018-09-18T00:38:57.467Z,13.64
2018-09-18T00:42:02.481Z,13.63
2018-09-18T00:45:07.498Z,13.62
2018-09-18T00:48:12.483Z,13.61
2018-09-18T00:51:17.469Z,13.57
2018-09-18T00:54:22.446Z,13.55
2018-09-18T00:57:27.429Z,13.49
2018-09-18T01:00:32.429Z,13.46
2018-09-18T01:03:37.403Z,13.46
2018-09-18T01:06:42.417Z,13.44
2018-09-18T01:09:47.406Z,13.42
2018-09-18T01:12:52.424Z,13.39
2018-09-18T01:15:57.422Z,13.37
2018-09-18T01:19:02.382Z,13.35
2018-09-18T01:22:07.374Z,13.32
2018-09-18T01:25:12.377Z,13.32
2018-09-18T01:28:17.355Z,13.29
2018-09-18T01:31:22.373Z,13.23
2018-09-18T01:34:27.370Z,13.19
2018-09-18T01:37:32.353Z,13.13
2018-09-18T01:40:37.329Z,13.12
2018-09-18T01:43:42.369Z,13.09
2018-09-18T01:46:47.317Z,13.06
2018-09-18T01:49:52.309Z,13.08
2018-09-18T01:52:57.301Z,13.07
2018-09-18T01:56:02.282Z,13.04
2018-09-18T01:59:07.281Z,13.02
2018-09-18T02:02:12.281Z,13.00
2018-09-18T02:05:17.270Z,13.00
2018-09-18T02:08:22.254Z,12.98
2018-09-18T02:11:27.246Z,12.95
2018-09-18T02:14:32.248Z,12.93
2018-09-18T02:17:37.221Z,12.92
2018-09-18T02:20:42.205Z,12.91
2018-09-18T02:23:47.225Z,12.88
2018-09-18T02:26:52.182Z,12.85
2018-09-18T02:29:57.217Z,12.83
2018-09-18T02:33:02.196Z,12.79
2018-09-18T02:36:07.154Z,12.77
2018-09-18T02:39:12.409Z,12.76
2018-09-18T02:42:17.923Z,12.72
2018-09-18T02:45:22.868Z,12.66
2018-09-18T02:48:27.825Z,12.61
2018-09-18T02:51:32.769Z,12.59
2018-09-18T02:54:37.726Z,12.54
2018-09-18T02:57:42.693Z,12.51
2018-09-18T03:00:47.673Z,12.53
2018-09-18T03:03:52.649Z,12.53
2018-09-18T03:06:57.623Z,12.56
2018-09-18T03:10:02.641Z,12.52
2018-09-18T03:13:07.617Z,12.51
2018-09-18T03:16:12.569Z,12.52
2018-09-18T03:19:17.594Z,12.47
2018-09-18T03:22:22.542Z,12.47
2018-09-18T03:25:27.493Z,12.44
2018-09-18T03:28:32.475Z,12.43
2018-09-18T03:31:37.457Z,12.40
2018-09-18T03:34:42.460Z,12.40
2018-09-18T03:37:47.438Z,12.38
2018-09-18T03:40:52.412Z,12.33
2018-09-18T03:43:57.394Z,12.31
2018-09-18T03:47:02.397Z,12.27
2018-09-18T03:50:07.390Z,12.28
2018-09-18T03:53:12.379Z,12.29
2018-09-18T03:56:17.346Z,12.29
2018-09-18T03:59:22.329Z,12.28
2018-09-18T04:02:27.297Z,12.27
2018-09-18T04:05:32.331Z,12.26
2018-09-18T04:08:37.321Z,12.22
2018-09-18T04:11:42.302Z,12.19
2018-09-18T04:14:47.285Z,12.18
2018-09-18T04:17:52.680Z,12.17
2018-09-18T04:20:57.670Z,12.13
2018-09-18T04:24:03.174Z,12.08
2018-09-18T04:27:08.142Z,12.02
2018-09-18T04:30:19.906Z,12.03
2018-09-18T04:33:24.885Z,11.97
2018-09-18T04:36:29.860Z,11.98
2018-09-18T04:39:34.850Z,12.00
2018-09-18T04:42:39.823Z,11.96
2018-09-18T04:45:44.821Z,11.94
2018-09-18T04:48:49.800Z,11.83
2018-09-18T04:51:54.773Z,11.77
2018-09-18T04:54:59.846Z,11.84
2018-09-18T04:58:04.832Z,11.81
2018-09-18T05:01:09.825Z,11.80
2018-09-18T05:04:14.801Z,11.78
2018-09-18T05:07:19.808Z,11.75
2018-09-18T05:10:24.769Z,11.75
2018-09-18T05:13:29.754Z,11.82
2018-09-18T05:16:34.857Z,11.78
2018-09-18T05:19:39.826Z,11.77
2018-09-18T05:22:44.776Z,11.70
2018-09-18T05:25:49.969Z,11.74
2018-09-18T05:28:55.016Z,11.82
2018-09-18T05:32:00.005Z,11.89
2018-09-18T05:35:05.093Z,11.91
2018-09-18T05:38:10.108Z,11.93
2018-09-18T05:41:15.128Z,11.87
2018-09-18T05:44:20.178Z,11.88
2018-09-18T05:47:25.237Z,11.91
2018-09-18T05:50:30.236Z,11.94
2018-09-18T05:53:35.344Z,11.91
2018-09-18T05:56:40.757Z,11.98
2018-09-18T05:59:45.828Z,11.96
2018-09-18T06:02:50.925Z,11.99
2018-09-18T06:05:55.936Z,11.97
2018-09-18T06:09:00.962Z,12.04
2018-09-18T06:12:06.045Z,12.07
2018-09-18T06:15:11.071Z,12.15
2018-09-18T06:18:16.052Z,12.24
2018-09-18T06:21:21.029Z,12.34
2018-09-18T06:24:25.970Z,12.41
2018-09-18T06:27:30.917Z,12.53
2018-09-18T06:30:35.916Z,12.62
2018-09-18T06:33:40.881Z,12.75
2018-09-18T06:36:45.863Z,12.98
2018-09-18T06:39:50.817Z,13.23
2018-09-18T06:42:55.826Z,13.31
2018-09-18T06:46:00.861Z,13.53
2018-09-18T06:49:05.822Z,13.83
2018-09-18T06:52:10.774Z,14.17
2018-09-18T06:55:15.738Z,14.46
2018-09-18T06:58:20.693Z,14.88
2018-09-18T07:01:25.677Z,15.32
2018-09-18T07:04:30.647Z,15.68
2018-09-18T07:07:35.636Z,16.06
2018-09-18T07:10:40.613Z,16.37
2018-09-18T07:13:45.549Z,16.75
2018-09-18T07:16:50.527Z,17.16
2018-09-18T07:19:55.531Z,17.45
2018-09-18T07:23:00.497Z,17.78
2018-09-18T07:26:05.726Z,18.11
2018-09-18T07:29:10.777Z,18.35
2018-09-18T07:32:15.747Z,18.58
2018-09-18T07:35:20.726Z,18.82
2018-09-18T07:38:25.673Z,19.09
2018-09-18T07:41:30.670Z,19.45
2018-09-18T07:44:35.623Z,19.93
2018-09-18T07:47:40.574Z,20.41
2018-09-18T07:50:45.557Z,20.66
2018-09-18T07:53:50.499Z,21.02
2018-09-18T07:56:55.461Z,21.32
2018-09-18T08:00:00.418Z,21.69
2018-09-18T08:03:05.476Z,22.31
2018-09-18T08:06:10.425Z,23.08
2018-09-18T08:09:15.386Z,23.52
2018-09-18T08:12:20.369Z,24.12
2018-09-18T08:15:25.310Z,24.65
2018-09-18T08:18:30.325Z,25.21
2018-09-18T08:21:35.316Z,25.59
2018-09-18T08:24:40.309Z,26.04
2018-09-18T08:27:45.282Z,26.32
2018-09-18T08:30:50.250Z,26.31
2018-09-18T08:33:55.382Z,26.43
2018-09-18T08:37:00.373Z,26.63
2018-09-18T08:40:05.624Z,26.89
2018-09-18T08:43:10.488Z,27.04
2018-09-18T08:46:15.438Z,27.27
2018-09-18T08:49:20.392Z,27.44
2018-09-18T08:52:25.366Z,27.24
2018-09-18T08:55:30.366Z,27.21
2018-09-18T08:58:35.348Z,27.52
2018-09-18T09:01:40.338Z,27.88
2018-09-18T09:04:45.305Z,28.18
2018-09-18T09:07:50.368Z,28.62
2018-09-18T09:10:55.297Z,28.52
2018-09-18T09:14:00.233Z,28.84
2018-09-18T09:17:05.228Z,29.05
2018-09-18T09:20:10.223Z,29.08
2018-09-18T09:23:15.229Z,28.86
2018-09-18T09:26:20.178Z,29.23
2018-09-18T09:29:25.142Z,29.56
2018-09-18T09:32:30.742Z,29.63
2018-09-18T09:35:35.697Z,29.77
2018-09-18T09:38:40.696Z,30.02
2018-09-18T09:41:45.645Z,30.24
2018-09-18T09:44:50.704Z,30.21
2018-09-18T09:47:55.621Z,29.83
2018-09-18T09:51:01.165Z,29.45
2018-09-18T09:54:06.217Z,29.66
2018-09-18T09:57:11.197Z,29.85
2018-09-18T10:00:21.890Z,30.11
2018-09-18T10:03:27.038Z,30.39
2018-09-18T10:06:32.033Z,30.56
2018-09-18T10:09:37.073Z,30.93
2018-09-18T10:12:42.279Z,31.24
2018-09-18T10:15:47.308Z,31.31
2018-09-18T10:18:52.361Z,30.95
2018-09-18T10:25:09.441Z,30.77
2018-09-18T10:28:15.553Z,30.93
2018-09-18T10:31:20.626Z,31.07
2018-09-18T10:34:25.648Z,31.17
2018-09-18T10:37:30.693Z,31.25
2018-09-18T10:40:35.729Z,31.45
2018-09-18T10:43:40.738Z,31.55
2018-09-18T10:46:45.745Z,31.40
2018-09-18T10:49:50.733Z,31.22
2018-09-18T10:52:55.737Z,30.99
2018-09-18T10:56:00.721Z,31.16
2018-09-18T10:59:05.798Z,31.35
2018-09-18T11:02:10.913Z,31.48
2018-09-18T11:05:15.834Z,31.59
2018-09-18T11:08:20.945Z,31.70
2018-09-18T11:11:25.918Z,31.18
2018-09-18T11:14:31.003Z,31.20
2018-09-18T11:17:35.997Z,30.89
2018-09-18T11:20:41.126Z,30.87
2018-09-18T11:23:46.201Z,30.76
2018-09-18T11:26:51.180Z,30.91
2018-09-18T11:33:27.595Z,30.76
2018-09-18T11:36:32.570Z,30.63
2018-09-18T11:39:37.602Z,30.76
2018-09-18T11:42:42.565Z,30.91
2018-09-18T11:45:47.645Z,30.99
2018-09-18T11:48:52.690Z,30.96
2018-09-18T11:51:57.755Z,30.91
2018-09-18T11:55:02.797Z,31.03
2018-09-18T11:58:07.810Z,31.16
2018-09-18T12:01:12.854Z,31.15
2018-09-18T12:04:17.990Z,31.20
2018-09-18T12:07:23.017Z,31.27
2018-09-18T12:10:28.046Z,31.33
2018-09-18T12:13:33.034Z,31.33
2018-09-18T12:16:38.163Z,31.12
2018-09-18T12:19:43.274Z,30.79
2018-09-18T12:22:48.360Z,30.61
2018-09-18T12:25:53.327Z,30.64
2018-09-18T12:28:58.286Z,30.67
2018-09-18T12:32:03.311Z,30.87
2018-09-18T12:35:08.341Z,30.96
2018-09-18T12:38:13.238Z,30.91
2018-09-18T12:41:18.367Z,30.63
2018-09-18T12:44:23.304Z,30.40
2018-09-18T12:47:28.272Z,30.47
2018-09-18T12:50:33.328Z,30.76
2018-09-18T12:53:38.310Z,30.75
2018-09-18T12:56:43.308Z,30.86
2018-09-18T12:59:48.375Z,30.85
2018-09-18T13:02:53.251Z,30.78
2018-09-18T13:05:58.367Z,30.69
2018-09-18T13:09:04.791Z,30.42
2018-09-18T13:12:09.767Z,30.41
2018-09-18T13:15:14.913Z,30.48
2018-09-18T13:18:21.236Z,30.51
2018-09-18T13:21:26.199Z,30.47
2018-09-18T13:24:31.570Z,30.44
2018-09-18T13:27:36.812Z,30.31
2018-09-18T13:30:41.855Z,30.44
2018-09-18T13:33:47.196Z,30.23
2018-09-18T13:36:52.230Z,30.23
2018-09-18T13:39:57.633Z,30.31
2018-09-18T13:43:02.958Z,30.35
2018-09-18T13:46:08.525Z,30.36
2018-09-18T13:49:13.902Z,30.29
2018-09-18T13:52:19.061Z,30.28
2018-09-18T13:55:24.622Z,30.24
2018-09-18T13:58:29.633Z,30.05
2018-09-18T14:01:36.007Z,29.92
2018-09-18T14:04:41.141Z,29.94
2018-09-18T14:07:46.401Z,29.83
2018-09-18T14:10:51.920Z,29.92
2018-09-18T14:13:57.323Z,29.94
2018-09-18T14:17:02.454Z,29.89
2018-09-18T14:20:08.020Z,29.85
2018-09-18T14:23:13.545Z,29.90
2018-09-18T14:26:19.589Z,29.84
2018-09-18T14:29:25.065Z,29.82
2018-09-18T14:32:30.879Z,29.79
2018-09-18T14:35:36.217Z,29.83
2018-09-18T14:38:42.347Z,29.83
2018-09-18T14:41:48.047Z,29.76
2018-09-18T14:44:53.755Z,29.84
2018-09-18T14:47:58.999Z,29.90
2018-09-18T14:51:04.386Z,29.78
2018-09-18T14:54:10.039Z,29.83
2018-09-18T14:57:15.615Z,29.85
2018-09-18T15:00:20.706Z,29.99
2018-09-18T15:03:26.093Z,29.81
2018-09-18T15:06:31.114Z,29.67
2018-09-18T15:09:36.109Z,29.71
2018-09-18T15:12:41.197Z,29.48
2018-09-18T15:15:46.503Z,29.55
2018-09-18T15:18:51.806Z,29.54
2018-09-18T15:21:57.005Z,29.50
2018-09-18T15:25:02.338Z,29.49
2018-09-18T15:28:07.495Z,29.39
2018-09-18T15:31:12.592Z,29.28
2018-09-18T15:34:17.691Z,29.32
2018-09-18T15:37:24.674Z,29.23
2018-09-18T15:40:30.020Z,29.04
2018-09-18T15:43:35.101Z,29.13
2018-09-18T15:46:41.243Z,29.13
2018-09-18T15:49:46.682Z,28.99
2018-09-18T15:52:52.851Z,29.04
2018-09-18T15:55:59.172Z,29.02
2018-09-18T15:59:04.938Z,28.86
2018-09-18T16:02:10.782Z,28.77
2018-09-18T16:05:16.837Z,28.62
2018-09-18T16:08:22.743Z,28.50
2018-09-18T16:11:28.494Z,28.41
2018-09-18T16:14:35.208Z,28.45
2018-09-18T16:21:11.506Z,28.09
2018-09-18T16:24:16.715Z,28.00
2018-09-18T16:27:22.010Z,27.91
2018-09-18T16:30:27.096Z,27.81
2018-09-18T16:33:32.842Z,27.64
2018-09-18T16:36:37.977Z,27.59
2018-09-18T16:39:43.777Z,27.51
2018-09-18T16:42:54.142Z,27.37
2018-09-18T16:46:00.364Z,27.29
2018-09-18T16:49:07.101Z,27.18
2018-09-18T16:52:12.354Z,26.94
2018-09-18T16:55:17.513Z,26.82
2018-09-18T16:58:22.698Z,26.74
2018-09-18T17:01:28.539Z,26.65
2018-09-18T17:04:33.849Z,26.54
2018-09-18T17:07:40.129Z,26.42
2018-09-18T17:10:45.388Z,26.30
2018-09-18T17:13:50.718Z,26.16
2018-09-18T17:16:55.968Z,25.98
2018-09-18T17:20:01.717Z,25.83
2018-09-18T17:23:06.992Z,25.70
2018-09-18T17:26:12.899Z,25.58
2018-09-18T17:29:18.059Z,25.43
2018-09-18T17:32:23.208Z,25.29
2018-09-18T17:35:28.709Z,25.16
2018-09-18T17:38:33.802Z,25.00
2018-09-18T17:41:39.210Z,24.90
2018-09-18T17:44:44.585Z,24.77
2018-09-18T17:47:49.654Z,24.67
2018-09-18T17:50:54.820Z,24.56
2018-09-18T17:54:00.035Z,24.44
2018-09-18T17:57:06.180Z,24.31
2018-09-18T18:00:11.608Z,24.10
2018-09-18T18:03:16.626Z,23.84
2018-09-18T18:06:21.851Z,23.76
2018-09-18T18:09:27.120Z,23.70
2018-09-18T18:12:32.135Z,23.64
2018-09-18T18:15:37.174Z,23.56
2018-09-18T18:18:42.299Z,23.43
2018-09-18T18:21:47.323Z,23.32
2018-09-18T18:24:52.419Z,23.24
2018-09-18T18:27:57.460Z,23.15
2018-09-18T18:31:02.530Z,23.03
2018-09-18T18:34:07.534Z,22.97
2018-09-18T18:37:12.621Z,22.83
2018-09-18T18:40:17.632Z,22.60
2018-09-18T18:43:22.667Z,22.58
2018-09-18T18:46:27.683Z,22.51
2018-09-18T18:49:35.637Z,22.33
2018-09-18T18:52:40.621Z,22.21
2018-09-18T18:55:45.605Z,22.10
2018-09-18T18:58:50.630Z,21.96
2018-09-18T19:01:55.634Z,21.78
2018-09-18T19:05:00.672Z,21.60
2018-09-18T19:08:05.714Z,21.66
2018-09-18T19:11:10.755Z,21.61
2018-09-18T19:14:15.754Z,21.55
2018-09-18T19:17:20.768Z,21.56
2018-09-18T19:20:25.892Z,21.40
2018-09-18T19:23:30.976Z,21.32
2018-09-18T19:26:35.905Z,21.27
2018-09-18T19:29:40.904Z,21.23
2018-09-18T19:32:45.940Z,21.16
2018-09-18T19:35:50.881Z,21.17
2018-09-18T19:38:55.883Z,21.20
2018-09-18T19:42:01.000Z,21.21
2018-09-18T19:45:06.882Z,21.21
2018-09-18T19:48:11.857Z,21.18
2018-09-18T19:51:16.822Z,21.17
2018-09-18T19:54:21.941Z,21.05
2018-09-18T19:57:26.910Z,20.94
2018-09-18T20:00:31.873Z,20.92
2018-09-18T20:03:36.830Z,20.92
2018-09-18T20:06:41.850Z,20.89
2018-09-18T20:09:47.371Z,20.87
2018-09-18T20:12:52.353Z,20.84
2018-09-18T20:15:57.341Z,20.81
2018-09-18T20:19:02.336Z,20.76
2018-09-18T20:22:08.166Z,20.67
2018-09-18T20:25:13.293Z,20.44
2018-09-18T20:28:18.262Z,20.28
2018-09-18T20:31:23.230Z,20.12
2018-09-18T20:34:28.269Z,20.13
2018-09-18T20:37:33.226Z,20.06
2018-09-18T20:40:38.187Z,20.02
2018-09-18T20:43:43.151Z,20.05
2018-09-18T20:46:48.107Z,19.99
2018-09-18T20:49:53.088Z,19.95
2018-09-18T20:52:58.061Z,19.95
2018-09-18T20:56:03.040Z,19.82
2018-09-18T20:59:08.011Z,19.73
2018-09-18T21:02:13.034Z,19.76
2018-09-18T21:05:17.949Z,19.80
2018-09-18T21:08:22.925Z,19.80
2018-09-18T21:11:27.861Z,19.80
2018-09-18T21:14:32.832Z,19.78
2018-09-18T21:17:37.905Z,19.73
2018-09-18T21:24:09.500Z,19.49
2018-09-18T21:27:14.473Z,19.42
2018-09-18T21:30:19.453Z,19.49
2018-09-18T21:33:24.428Z,19.42
2018-09-18T21:36:29.398Z,19.37
2018-09-18T21:39:34.374Z,19.40
2018-09-18T21:42:39.353Z,19.51
2018-09-18T21:45:44.690Z,19.59
2018-09-18T21:48:49.665Z,19.64
2018-09-18T21:51:54.635Z,19.70
2018-09-18T21:54:59.598Z,19.72
2018-09-18T21:58:04.617Z,19.72
2018-09-18T22:01:16.189Z,19.72
2018-09-18T22:04:21.139Z,19.73
2018-09-18T22:07:26.117Z,19.67
2018-09-18T22:10:31.088Z,19.61
2018-09-18T22:13:36.072Z,19.57
2018-09-18T22:16:41.072Z,19.49
2018-09-18T22:19:46.050Z,19.42
2018-09-18T22:22:51.049Z,19.39
2018-09-18T22:25:56.066Z,19.32
2018-09-18T22:29:01.025Z,19.29
2018-09-18T22:32:06.042Z,19.25
2018-09-18T22:35:11.097Z,19.09
2018-09-18T22:38:16.065Z,19.02
2018-09-18T22:41:21.057Z,19.03
2018-09-18T22:44:26.043Z,18.95
2018-09-18T22:47:31.065Z,18.95
2018-09-18T22:50:36.038Z,18.98
2018-09-18T22:53:41.177Z,18.98
2018-09-18T22:56:46.158Z,18.98
2018-09-18T22:59:51.315Z,19.02
2018-09-18T23:02:56.307Z,19.03
2018-09-18T23:06:01.273Z,19.01
2018-09-18T23:09:06.877Z,18.99
2018-09-18T23:12:11.846Z,19.03
2018-09-18T23:15:16.815Z,19.03
2018-09-18T23:18:21.804Z,19.02
2018-09-18T23:21:26.824Z,19.04
2018-09-18T23:24:31.753Z,19.01
2018-09-18T23:27:36.738Z,19.08
2018-09-18T23:30:41.692Z,19.10
2018-09-18T23:33:46.828Z,19.12
2018-09-18T23:36:51.910Z,18.97
2018-09-18T23:39:56.885Z,19.03
2018-09-18T23:43:01.877Z,18.98
2018-09-18T23:46:06.849Z,18.95
2018-09-18T23:49:11.821Z,19.03
2018-09-18T23:52:16.790Z,18.95
2018-09-18T23:55:21.770Z,18.95
2018-09-18T23:58:26.747Z,19.01
